createdAt,value
2022-08-21T10:46:22.018Z,53.34
2022-08-21T10:51:35.449Z,53.03
2022-08-21T10:56:33.469Z,53.03
2022-08-21T11:01:36.451Z,52.89
2022-08-21T11:06:33.123Z,52.52
2022-08-21T11:11:36.672Z,52.69
2022-08-21T11:16:42.830Z,52.45
2022-08-21T11:21:51.963Z,52.08
2022-08-21T11:27:00.262Z,51.65
2022-08-21T11:32:08.175Z,51.64
2022-08-21T11:37:13.974Z,51.49
2022-08-21T11:42:10.615Z,50.71
2022-08-21T11:47:10.062Z,50.76
2022-08-21T11:52:24.529Z,50.53
2022-08-21T11:57:38.978Z,50.57
2022-08-21T12:02:36.362Z,50.00
2022-08-21T12:07:42.820Z,49.94
2022-08-21T12:12:45.880Z,49.78
2022-08-21T12:17:51.759Z,49.64
2022-08-21T12:22:54.305Z,49.44
2022-08-21T12:27:54.380Z,49.25
2022-08-21T12:32:56.541Z,49.29
2022-08-21T12:37:57.097Z,49.30
2022-08-21T12:42:59.029Z,49.28
2022-08-21T12:48:00.292Z,49.53
2022-08-21T12:53:00.612Z,48.91
2022-08-21T12:57:56.933Z,48.67
2022-08-21T13:02:56.204Z,48.94
2022-08-21T13:07:52.644Z,48.74
2022-08-21T13:12:49.015Z,48.39
2022-08-21T13:17:46.603Z,48.21
2022-08-21T13:22:44.010Z,48.13
2022-08-21T13:27:40.425Z,48.00
2022-08-21T13:32:38.707Z,47.76
2022-08-21T13:37:35.919Z,47.76
2022-08-21T13:42:34.397Z,47.02
2022-08-21T13:47:31.780Z,46.91
2022-08-21T13:52:28.247Z,47.17
2022-08-21T13:57:29.023Z,47.09
2022-08-21T14:02:25.417Z,46.97
2022-08-21T14:07:24.681Z,46.52
2022-08-21T14:12:28.067Z,46.94
2022-08-21T14:23:51.238Z,46.90
2022-08-21T14:28:50.024Z,46.58
2022-08-21T14:33:54.476Z,46.08
2022-08-21T14:38:52.625Z,46.14
2022-08-21T14:44:01.235Z,46.38
2022-08-21T14:49:06.454Z,46.60
2022-08-21T14:54:02.897Z,46.54
2022-08-21T14:59:01.969Z,46.12
2022-08-21T15:03:58.393Z,46.18
2022-08-21T15:09:00.071Z,46.28
2022-08-21T15:13:57.497Z,45.84
2022-08-21T15:18:53.901Z,46.21
2022-08-21T15:23:51.323Z,45.96
2022-08-21T15:28:49.728Z,46.08
2022-08-21T15:33:46.139Z,45.90
2022-08-21T15:38:42.556Z,46.18
2022-08-21T15:43:44.649Z,45.83
2022-08-21T15:48:43.911Z,45.69
2022-08-21T15:53:52.767Z,45.88
2022-08-21T15:58:50.041Z,45.91
2022-08-21T16:03:49.360Z,45.56
2022-08-21T16:08:49.608Z,45.96
2022-08-21T16:13:46.172Z,45.66
2022-08-21T16:18:42.797Z,45.85
2022-08-21T16:23:41.429Z,45.60
2022-08-21T16:28:40.415Z,45.55
2022-08-21T16:33:42.329Z,45.45
2022-08-21T16:38:41.845Z,45.61
2022-08-21T16:43:38.853Z,45.69
2022-08-21T16:48:59.409Z,45.39
2022-08-21T16:54:00.741Z,45.48
2022-08-21T16:59:29.273Z,45.71
2022-08-21T17:04:27.997Z,45.47
2022-08-21T17:09:24.578Z,45.45
2022-08-21T17:14:22.107Z,45.37
2022-08-21T17:19:19.799Z,45.30
2022-08-21T17:24:16.193Z,45.62
2022-08-21T17:29:14.502Z,45.57
2022-08-21T17:34:11.872Z,45.23
2022-08-21T17:39:09.784Z,45.55
2022-08-21T17:44:07.233Z,45.28
2022-08-21T17:49:03.643Z,45.34
2022-08-21T17:54:00.072Z,45.89
2022-08-21T17:58:56.436Z,45.78
2022-08-21T18:03:52.878Z,45.90
2022-08-21T18:08:49.172Z,46.25
2022-08-21T18:13:45.511Z,46.64
2022-08-21T18:18:42.763Z,46.77
2022-08-21T18:23:43.786Z,47.00
2022-08-21T18:28:40.939Z,47.52
2022-08-21T18:33:37.923Z,47.80
2022-08-21T18:38:35.533Z,47.94
2022-08-21T18:43:31.944Z,48.14
2022-08-21T18:48:29.435Z,48.49
2022-08-21T18:53:27.416Z,48.63
2022-08-21T18:58:24.502Z,48.95
2022-08-21T19:03:23.669Z,49.13
2022-08-21T19:08:21.224Z,49.23
2022-08-21T19:13:19.334Z,49.16
2022-08-21T19:18:16.176Z,49.29
2022-08-21T19:23:14.083Z,49.69
2022-08-21T19:28:11.885Z,49.92
2022-08-21T19:33:08.283Z,50.00
2022-08-21T19:38:05.056Z,49.91
2022-08-21T19:43:01.480Z,50.29
2022-08-21T19:53:14.513Z,50.39
2022-08-21T19:58:19.036Z,50.47
2022-08-21T20:03:21.154Z,50.50
2022-08-21T20:08:20.327Z,50.51
2022-08-21T20:13:17.749Z,50.81
2022-08-21T20:18:15.189Z,51.12
2022-08-21T20:23:11.589Z,51.38
2022-08-21T20:28:07.992Z,51.50
2022-08-21T20:33:04.652Z,51.54
2022-08-21T20:38:01.109Z,51.72
